createdAt,value
2023-04-16T00:01:39.047Z,9.05
2023-04-16T00:04:06.026Z,9.10
2023-04-16T00:06:32.793Z,9.05
2023-04-16T00:08:59.400Z,9.00
2023-04-16T00:11:25.822Z,8.97
2023-04-16T00:13:52.425Z,8.91
2023-04-16T00:16:18.847Z,8.77
2023-04-16T00:18:45.577Z,8.85
2023-04-16T00:21:12.391Z,8.85
2023-04-16T00:23:38.901Z,8.78
2023-04-16T00:26:05.373Z,8.86
2023-04-16T00:28:31.850Z,8.83
2023-04-16T00:30:58.545Z,8.85
2023-04-16T00:33:25.240Z,8.77
2023-04-16T00:35:51.668Z,8.80
2023-04-16T00:38:18.264Z,8.79
2023-04-16T00:40:44.923Z,8.78
2023-04-16T00:43:11.313Z,8.80
2023-04-16T00:45:38.672Z,8.82
2023-04-16T00:48:05.885Z,8.84
2023-04-16T00:50:33.661Z,8.75
2023-04-16T00:53:01.078Z,8.77
2023-04-16T00:55:27.659Z,8.77
2023-04-16T00:57:54.116Z,8.77
2023-04-16T01:00:21.484Z,8.79
2023-04-16T01:02:48.146Z,8.84
2023-04-16T01:05:14.729Z,8.73
2023-04-16T01:07:41.154Z,8.71
2023-04-16T01:10:08.199Z,8.71
2023-04-16T01:12:34.704Z,8.69
2023-04-16T01:15:01.444Z,8.70
2023-04-16T01:17:27.911Z,8.74
2023-04-16T01:19:54.759Z,8.83
2023-04-16T01:22:21.207Z,8.91
2023-04-16T01:24:47.760Z,8.89
2023-04-16T01:27:15.043Z,8.92
2023-04-16T01:29:41.777Z,8.88
2023-04-16T01:32:08.671Z,8.91
2023-04-16T01:34:40.725Z,8.88
2023-04-16T01:37:09.758Z,8.90
2023-04-16T01:39:36.619Z,8.81
2023-04-16T01:42:03.120Z,8.86
2023-04-16T01:44:31.022Z,8.81
2023-04-16T01:46:57.583Z,8.81
2023-04-16T01:49:25.368Z,8.83
2023-04-16T01:51:51.797Z,8.82
2023-04-16T01:54:18.541Z,8.83
2023-04-16T01:56:44.993Z,8.89
2023-04-16T01:59:12.338Z,8.79
2023-04-16T02:01:42.362Z,8.81
2023-04-16T02:04:10.223Z,8.85
2023-04-16T02:06:37.603Z,8.87
2023-04-16T02:09:04.197Z,8.91
2023-04-16T02:11:31.071Z,8.94
2023-04-16T02:13:57.604Z,8.91
2023-04-16T02:16:26.378Z,8.97
2023-04-16T02:18:58.173Z,8.92
2023-04-16T02:21:27.414Z,8.98
2023-04-16T02:23:53.815Z,8.95
2023-04-16T02:26:26.618Z,8.93
2023-04-16T02:28:55.267Z,8.96
2023-04-16T02:31:28.558Z,8.88
2023-04-16T02:33:56.144Z,9.00
2023-04-16T02:36:22.741Z,9.03
2023-04-16T02:38:49.182Z,9.03
2023-04-16T02:41:15.982Z,9.04
2023-04-16T02:43:42.532Z,8.92
2023-04-16T02:46:09.237Z,8.85
2023-04-16T02:48:36.096Z,8.85
2023-04-16T02:51:02.821Z,8.87
2023-04-16T02:53:29.209Z,8.84
2023-04-16T02:55:55.809Z,8.82
2023-04-16T02:58:24.524Z,8.84
2023-04-16T03:00:52.236Z,8.85
2023-04-16T03:03:18.871Z,8.71
2023-04-16T03:05:45.691Z,8.68
2023-04-16T03:08:12.099Z,8.67
2023-04-16T03:10:38.928Z,8.73
2023-04-16T03:13:05.542Z,8.68
2023-04-16T03:15:32.154Z,8.70
2023-04-16T03:17:59.347Z,8.68
2023-04-16T03:20:26.204Z,8.72
2023-04-16T03:22:53.208Z,8.76
2023-04-16T03:25:19.911Z,8.74
2023-04-16T03:27:46.320Z,8.78
2023-04-16T03:30:14.700Z,8.78
2023-04-16T03:32:41.390Z,8.83
2023-04-16T03:35:08.968Z,8.74
2023-04-16T03:37:36.939Z,8.72
2023-04-16T03:40:05.781Z,8.81
2023-04-16T03:42:32.679Z,8.86
2023-04-16T03:44:59.466Z,8.93
2023-04-16T03:47:26.640Z,8.89
2023-04-16T03:49:56.784Z,8.86
2023-04-16T03:52:23.613Z,8.84
2023-04-16T03:54:50.785Z,8.80
2023-04-16T03:57:23.850Z,8.85
2023-04-16T03:59:51.103Z,8.86
2023-04-16T04:02:18.449Z,8.86
2023-04-16T04:04:45.251Z,8.91
2023-04-16T04:07:11.899Z,8.93
2023-04-16T04:09:38.755Z,8.94
2023-04-16T04:12:05.613Z,8.88
2023-04-16T04:14:33.076Z,8.90
2023-04-16T04:16:59.695Z,8.99
2023-04-16T04:19:26.130Z,8.98
2023-04-16T04:21:52.855Z,8.98
2023-04-16T04:24:19.344Z,8.96
2023-04-16T04:26:45.932Z,8.85
2023-04-16T04:29:13.920Z,8.77
2023-04-16T04:31:41.079Z,8.78
2023-04-16T04:34:07.699Z,8.86
2023-04-16T04:36:34.390Z,8.79
2023-04-16T04:39:01.283Z,8.83
2023-04-16T04:41:28.108Z,8.78
2023-04-16T04:43:54.556Z,8.77
2023-04-16T04:46:21.318Z,8.76
2023-04-16T04:48:47.862Z,8.78
2023-04-16T04:51:16.729Z,8.79
2023-04-16T04:53:45.871Z,8.78
2023-04-16T04:56:13.189Z,8.86
2023-04-16T04:58:41.385Z,8.84
2023-04-16T05:01:08.089Z,8.87
2023-04-16T05:03:34.687Z,8.87
2023-04-16T05:06:01.359Z,8.88
2023-04-16T05:08:27.931Z,8.93
2023-04-16T05:10:54.642Z,8.92
2023-04-16T05:13:21.577Z,8.88
2023-04-16T05:15:48.052Z,8.70
2023-04-16T05:18:14.454Z,8.76
2023-04-16T05:20:41.047Z,8.77
2023-04-16T05:23:07.482Z,8.79
2023-04-16T05:25:34.193Z,8.87
2023-04-16T05:28:00.867Z,8.87
2023-04-16T05:30:27.558Z,8.92
2023-04-16T05:32:54.091Z,8.98
2023-04-16T05:35:20.721Z,8.85
2023-04-16T05:37:47.165Z,8.83
2023-04-16T05:40:14.684Z,8.79
2023-04-16T05:42:41.316Z,8.92
2023-04-16T05:45:08.610Z,8.97
2023-04-16T05:47:35.106Z,9.02
2023-04-16T05:50:01.752Z,9.07
2023-04-16T05:52:28.193Z,9.06
2023-04-16T05:54:54.877Z,9.03
2023-04-16T05:57:21.266Z,8.96
2023-04-16T05:59:47.864Z,8.93
2023-04-16T06:02:14.448Z,8.96
2023-04-16T06:04:41.156Z,9.03
2023-04-16T06:07:07.694Z,9.06
2023-04-16T06:09:34.242Z,9.11
2023-04-16T06:12:01.245Z,9.10
2023-04-16T06:14:27.778Z,9.18
2023-04-16T06:16:54.253Z,9.21
2023-04-16T06:19:20.969Z,9.21
2023-04-16T06:21:47.372Z,9.24
2023-04-16T06:24:13.975Z,9.29
2023-04-16T06:26:40.449Z,9.33
2023-04-16T06:29:06.987Z,9.33
2023-04-16T06:31:33.737Z,9.30
2023-04-16T06:34:00.443Z,9.30
2023-04-16T06:36:27.927Z,9.33
2023-04-16T06:38:54.668Z,9.31
2023-04-16T06:41:22.722Z,9.36
2023-04-16T06:43:49.595Z,9.31
2023-04-16T06:46:16.021Z,9.30
2023-04-16T06:48:42.693Z,9.40
2023-04-16T06:51:09.109Z,9.51
2023-04-16T06:53:37.598Z,9.49
2023-04-16T06:56:04.522Z,9.46
2023-04-16T06:58:31.121Z,9.56
2023-04-16T07:00:57.829Z,9.55
2023-04-16T07:03:24.571Z,9.70
2023-04-16T07:05:51.329Z,9.65
2023-04-16T07:08:17.782Z,9.68
2023-04-16T07:10:44.479Z,9.72
2023-04-16T07:13:10.924Z,9.76
2023-04-16T07:15:37.387Z,9.72
2023-04-16T07:18:04.105Z,9.70
2023-04-16T07:20:30.771Z,9.75
2023-04-16T07:22:59.230Z,9.85
2023-04-16T07:25:26.865Z,9.82
2023-04-16T07:27:53.464Z,9.83
2023-04-16T07:30:19.900Z,9.87
2023-04-16T07:32:46.448Z,9.87
2023-04-16T07:35:13.004Z,9.87
2023-04-16T07:37:39.402Z,9.91
2023-04-16T07:40:06.963Z,9.99
2023-04-16T07:42:33.389Z,10.04
2023-04-16T07:44:59.855Z,10.06
2023-04-16T07:47:27.115Z,10.10
2023-04-16T07:49:53.912Z,10.16
2023-04-16T07:52:20.634Z,10.16
2023-04-16T07:54:47.235Z,10.19
2023-04-16T07:57:13.653Z,10.21
2023-04-16T07:59:40.217Z,10.15
2023-04-16T08:02:07.228Z,10.21
2023-04-16T08:04:33.986Z,10.25
2023-04-16T08:07:00.717Z,10.35
2023-04-16T08:09:28.556Z,10.50
2023-04-16T08:11:54.949Z,10.63
2023-04-16T08:14:21.585Z,10.76
2023-04-16T08:16:47.984Z,10.83
2023-04-16T08:19:14.417Z,10.90
2023-04-16T08:21:41.106Z,11.00
2023-04-16T08:24:08.007Z,10.95
2023-04-16T08:26:34.400Z,10.94
2023-04-16T08:29:01.013Z,10.89
2023-04-16T08:31:27.647Z,10.83
2023-04-16T08:33:54.326Z,10.82
2023-04-16T08:36:20.834Z,10.83
2023-04-16T08:38:47.353Z,10.84
2023-04-16T08:41:14.008Z,10.82
2023-04-16T08:43:44.810Z,10.74
2023-04-16T08:46:12.364Z,10.75
2023-04-16T08:48:43.050Z,10.67
2023-04-16T08:51:11.922Z,10.65
2023-04-16T08:53:58.363Z,10.62
2023-04-16T08:56:25.447Z,10.61
2023-04-16T08:58:54.730Z,10.56
2023-04-16T09:01:21.417Z,10.50
2023-04-16T09:03:48.860Z,10.48
2023-04-16T09:06:16.605Z,10.40
2023-04-16T09:08:46.532Z,10.43
2023-04-16T09:11:19.663Z,10.41
2023-04-16T09:13:47.514Z,10.50
2023-04-16T09:16:14.830Z,10.62
2023-04-16T09:18:41.426Z,10.78
2023-04-16T09:21:10.031Z,10.89
2023-04-16T09:23:38.389Z,11.00
2023-04-16T09:26:05.664Z,11.06
2023-04-16T09:28:48.782Z,11.08
2023-04-16T09:31:18.177Z,11.13
2023-04-16T09:34:01.495Z,11.25
2023-04-16T09:36:28.330Z,11.40
2023-04-16T09:39:07.631Z,11.44
2023-04-16T09:41:39.452Z,11.59
2023-04-16T09:44:06.148Z,11.72
2023-04-16T09:46:40.360Z,11.80
2023-04-16T09:49:16.828Z,11.82
2023-04-16T09:51:47.941Z,11.84
2023-04-16T09:54:14.548Z,11.88
2023-04-16T09:56:46.414Z,11.91
2023-04-16T09:59:23.335Z,11.89
2023-04-16T10:01:50.435Z,12.03
2023-04-16T10:04:17.325Z,12.27
2023-04-16T10:06:44.098Z,12.41
2023-04-16T10:09:11.245Z,12.49
2023-04-16T10:11:37.926Z,12.51
2023-04-16T10:14:04.663Z,12.51
2023-04-16T10:16:31.315Z,12.60
2023-04-16T10:18:58.833Z,12.55
2023-04-16T10:21:33.485Z,12.62
2023-04-16T10:24:00.649Z,12.63
2023-04-16T10:26:28.920Z,12.59
2023-04-16T10:28:56.299Z,12.60
2023-04-16T10:31:23.119Z,12.48
2023-04-16T10:33:50.343Z,12.37
2023-04-16T10:36:23.494Z,12.31
2023-04-16T10:38:52.422Z,12.29
2023-04-16T10:41:21.930Z,12.25
2023-04-16T10:43:51.549Z,12.22
2023-04-16T10:46:29.019Z,12.23
2023-04-16T10:48:59.973Z,12.31
2023-04-16T10:51:34.475Z,12.40
2023-04-16T10:54:11.698Z,12.40
2023-04-16T10:56:38.297Z,12.41
2023-04-16T10:59:06.379Z,12.23
2023-04-16T11:01:34.931Z,11.92
2023-04-16T11:04:25.180Z,11.87
2023-04-16T11:07:16.594Z,11.85
2023-04-16T11:09:56.546Z,11.74
2023-04-16T11:12:27.112Z,11.67
2023-04-16T11:14:58.050Z,11.63
2023-04-16T11:17:28.992Z,11.64
2023-04-16T11:19:55.793Z,11.56
2023-04-16T11:22:22.380Z,11.65
2023-04-16T11:24:55.479Z,11.54
2023-04-16T11:27:23.273Z,11.61
2023-04-16T11:30:09.509Z,11.67
2023-04-16T11:32:37.884Z,11.69
2023-04-16T11:35:16.994Z,11.65
2023-04-16T11:37:44.675Z,11.68
2023-04-16T11:40:11.964Z,11.62
2023-04-16T11:42:40.822Z,11.61
2023-04-16T11:45:09.662Z,11.54
2023-04-16T11:47:52.959Z,11.46
2023-04-16T11:50:25.017Z,11.51
2023-04-16T11:52:53.017Z,11.56
2023-04-16T11:55:20.604Z,11.58
2023-04-16T11:57:47.367Z,11.55
2023-04-16T12:00:15.081Z,11.66
2023-04-16T12:02:41.676Z,11.75
2023-04-16T12:05:31.231Z,11.69
2023-04-16T12:07:58.677Z,11.73
2023-04-16T12:10:25.935Z,11.80
2023-04-16T12:12:52.695Z,11.96
2023-04-16T12:15:19.165Z,11.94
2023-04-16T12:17:45.991Z,11.87
2023-04-16T12:20:15.425Z,12.05
2023-04-16T12:22:47.620Z,12.08
2023-04-16T12:25:16.270Z,12.08
2023-04-16T12:27:53.988Z,12.01
2023-04-16T12:30:26.362Z,12.01
2023-04-16T12:33:18.260Z,11.98
2023-04-16T12:35:45.317Z,12.03
2023-04-16T12:38:12.407Z,11.95
2023-04-16T12:40:39.066Z,11.84
2023-04-16T12:43:05.500Z,11.77
2023-04-16T12:45:32.150Z,11.71
2023-04-16T12:47:59.177Z,11.63
2023-04-16T12:50:25.950Z,11.62
2023-04-16T12:52:52.368Z,11.69
2023-04-16T12:55:19.311Z,11.75
2023-04-16T12:57:45.716Z,11.85
2023-04-16T13:00:12.832Z,11.88
2023-04-16T13:02:39.939Z,11.84
2023-04-16T13:05:07.919Z,11.91
2023-04-16T13:07:34.591Z,12.07
2023-04-16T13:10:01.357Z,12.18
2023-04-16T13:12:28.402Z,12.22
2023-04-16T13:14:57.788Z,12.23
2023-04-16T13:17:24.313Z,12.10
2023-04-16T13:19:51.009Z,12.01
2023-04-16T13:22:17.487Z,11.91
2023-04-16T13:24:44.082Z,11.85
2023-04-16T13:27:11.282Z,11.90
2023-04-16T13:29:38.059Z,11.91
2023-04-16T13:32:04.743Z,12.04
2023-04-16T13:34:31.733Z,12.21
2023-04-16T13:36:58.286Z,12.31
2023-04-16T13:39:25.324Z,12.34
2023-04-16T13:41:51.732Z,12.38
2023-04-16T13:44:18.217Z,12.43
2023-04-16T13:46:47.642Z,12.60
2023-04-16T13:49:14.854Z,12.55
2023-04-16T13:51:44.586Z,12.63
2023-04-16T13:54:11.166Z,12.66
2023-04-16T13:56:37.684Z,12.78
2023-04-16T13:59:04.368Z,12.83
2023-04-16T14:01:30.891Z,12.90
2023-04-16T14:03:57.537Z,12.96
2023-04-16T14:06:24.006Z,12.89
2023-04-16T14:08:50.825Z,12.95
2023-04-16T14:11:17.245Z,12.93
2023-04-16T14:13:43.832Z,12.91
2023-04-16T14:16:10.692Z,12.83
2023-04-16T14:18:41.001Z,12.80
2023-04-16T14:21:08.097Z,12.74
2023-04-16T14:23:34.650Z,12.74
2023-04-16T14:26:01.085Z,12.70
2023-04-16T14:28:27.701Z,12.78
2023-04-16T14:30:54.098Z,12.79
2023-04-16T14:33:20.649Z,12.77
2023-04-16T14:35:47.075Z,12.67
2023-04-16T14:38:13.734Z,12.73
2023-04-16T14:40:40.284Z,12.70
2023-04-16T14:43:06.849Z,12.68
2023-04-16T14:45:33.351Z,12.67
2023-04-16T14:48:00.061Z,12.64
2023-04-16T14:50:26.513Z,12.63
2023-04-16T14:52:54.641Z,12.65
2023-04-16T14:55:21.370Z,12.57
2023-04-16T14:57:47.822Z,12.61
2023-04-16T15:00:17.125Z,12.63
2023-04-16T15:02:43.825Z,12.69
2023-04-16T15:05:10.636Z,12.69
2023-04-16T15:07:37.284Z,12.43
2023-04-16T15:10:04.515Z,12.35
2023-04-16T15:12:31.141Z,12.34
2023-04-16T15:14:57.845Z,12.47
2023-04-16T15:17:24.360Z,12.51
2023-04-16T15:19:52.147Z,12.51
2023-04-16T15:22:18.618Z,12.49
2023-04-16T15:24:45.488Z,12.45
2023-04-16T15:27:13.775Z,12.44
2023-04-16T15:29:40.425Z,12.52
2023-04-16T15:32:09.776Z,12.53
2023-04-16T15:34:36.308Z,12.47
2023-04-16T15:37:02.802Z,12.40
2023-04-16T15:39:30.821Z,12.37
2023-04-16T15:42:01.577Z,12.49
2023-04-16T15:44:31.385Z,12.48
2023-04-16T15:46:58.134Z,12.51
2023-04-16T15:49:24.794Z,12.43
2023-04-16T15:51:52.102Z,12.38
2023-04-16T15:54:18.934Z,12.36
2023-04-16T15:56:46.567Z,12.37
2023-04-16T15:59:13.472Z,12.35
2023-04-16T16:01:40.239Z,12.36
2023-04-16T16:04:07.974Z,12.29
2023-04-16T16:06:34.915Z,12.29
2023-04-16T16:09:01.741Z,12.27
2023-04-16T16:11:28.361Z,12.24
2023-04-16T16:13:54.925Z,12.21
2023-04-16T16:16:21.849Z,12.10
2023-04-16T16:18:48.821Z,12.20
2023-04-16T16:21:15.282Z,12.29
2023-04-16T16:23:41.970Z,12.31
2023-04-16T16:26:09.117Z,12.32
2023-04-16T16:28:37.801Z,12.23
2023-04-16T16:31:05.936Z,12.29
2023-04-16T16:33:32.881Z,12.32
2023-04-16T16:35:59.294Z,12.30
2023-04-16T16:38:25.868Z,12.25
2023-04-16T16:40:52.365Z,12.25
2023-04-16T16:43:18.809Z,12.34
2023-04-16T16:45:45.204Z,12.25
2023-04-16T16:48:11.922Z,12.24
2023-04-16T16:50:38.369Z,12.24
2023-04-16T16:53:05.289Z,12.16
2023-04-16T16:55:31.759Z,12.18
2023-04-16T16:57:58.696Z,12.17
2023-04-16T17:00:25.448Z,12.16
2023-04-16T17:02:52.281Z,12.10
2023-04-16T17:05:18.926Z,12.07
2023-04-16T17:07:45.844Z,12.11
2023-04-16T17:10:15.756Z,12.06
2023-04-16T17:12:42.242Z,11.97
2023-04-16T17:15:09.300Z,11.93
2023-04-16T17:17:35.981Z,11.89
2023-04-16T17:20:08.030Z,11.85
2023-04-16T17:22:34.656Z,11.94
2023-04-16T17:25:01.434Z,11.80
2023-04-16T17:27:29.379Z,11.71
2023-04-16T17:29:59.986Z,11.72
2023-04-16T17:32:26.945Z,11.64
2023-04-16T17:34:56.462Z,11.62
2023-04-16T17:37:23.439Z,11.69
2023-04-16T17:39:50.101Z,11.55
2023-04-16T17:42:17.012Z,11.54
2023-04-16T17:44:43.504Z,11.55
2023-04-16T17:47:10.066Z,11.54
2023-04-16T17:49:36.535Z,11.49
2023-04-16T17:52:03.393Z,11.40
2023-04-16T17:54:29.804Z,11.44
2023-04-16T17:56:57.512Z,11.37
2023-04-16T17:59:24.184Z,11.34
2023-04-16T18:01:50.894Z,11.38
2023-04-16T18:04:18.008Z,11.33
2023-04-16T18:06:44.939Z,11.38
2023-04-16T18:09:12.156Z,11.37
2023-04-16T18:11:38.566Z,11.25
2023-04-16T18:14:05.166Z,11.26
2023-04-16T18:16:32.147Z,11.23
2023-04-16T18:18:59.119Z,11.17
2023-04-16T18:21:25.896Z,11.15
2023-04-16T18:23:52.363Z,11.10
2023-04-16T18:26:21.099Z,11.00
2023-04-16T18:28:49.298Z,11.00
2023-04-16T18:31:15.964Z,11.00
2023-04-16T18:33:54.081Z,10.97
2023-04-16T18:36:23.603Z,10.96
2023-04-16T18:39:00.191Z,10.94
2023-04-16T18:41:28.492Z,10.90
2023-04-16T18:43:55.090Z,10.93
2023-04-16T18:46:21.554Z,10.91
2023-04-16T18:48:48.215Z,10.86
2023-04-16T18:51:16.374Z,10.86
2023-04-16T18:53:44.524Z,10.82
2023-04-16T18:56:11.522Z,10.74
2023-04-16T18:58:38.167Z,10.65
2023-04-16T19:01:07.610Z,10.74
2023-04-16T19:03:34.435Z,10.76
2023-04-16T19:06:01.065Z,10.72
2023-04-16T19:08:27.710Z,10.73
2023-04-16T19:10:54.135Z,10.66
2023-04-16T19:13:20.806Z,10.52
2023-04-16T19:15:47.251Z,10.48
2023-04-16T19:18:13.885Z,10.49
2023-04-16T19:20:40.427Z,10.52
2023-04-16T19:23:09.185Z,10.54
2023-04-16T19:25:36.457Z,10.51
2023-04-16T19:28:03.741Z,10.56
2023-04-16T19:30:30.497Z,10.58
2023-04-16T19:32:57.154Z,10.56
2023-04-16T19:35:23.808Z,10.59
2023-04-16T19:37:50.508Z,10.49
2023-04-16T19:40:16.954Z,10.43
2023-04-16T19:42:45.429Z,10.42
2023-04-16T19:45:12.117Z,10.45
2023-04-16T19:47:38.757Z,10.36
2023-04-16T19:50:05.964Z,10.35
2023-04-16T19:52:37.453Z,10.30
2023-04-16T19:55:04.985Z,10.23
2023-04-16T19:57:31.478Z,10.24
2023-04-16T19:59:57.899Z,10.22
2023-04-16T20:02:24.704Z,10.23
2023-04-16T20:04:52.899Z,10.18
2023-04-16T20:07:19.958Z,10.10
2023-04-16T20:09:46.598Z,10.06
2023-04-16T20:12:13.016Z,10.06
2023-04-16T20:14:40.027Z,10.02
2023-04-16T20:17:09.799Z,10.06
2023-04-16T20:19:38.325Z,10.09
2023-04-16T20:22:04.851Z,10.12
2023-04-16T20:24:31.404Z,10.04
2023-04-16T20:26:58.003Z,10.00
2023-04-16T20:29:24.487Z,10.05
2023-04-16T20:31:50.915Z,10.01
2023-04-16T20:34:17.616Z,9.94
2023-04-16T20:36:44.050Z,9.88
2023-04-16T20:39:11.294Z,9.93
2023-04-16T20:41:44.336Z,9.88
2023-04-16T20:44:18.075Z,9.95
2023-04-16T20:46:49.365Z,10.03
2023-04-16T20:49:17.617Z,10.01
2023-04-16T20:51:44.256Z,10.01
2023-04-16T20:54:11.065Z,10.02
2023-04-16T20:56:37.471Z,10.03
2023-04-16T20:59:04.028Z,10.02
2023-04-16T21:01:30.682Z,9.93
2023-04-16T21:03:57.691Z,9.89
2023-04-16T21:06:24.269Z,9.91
2023-04-16T21:08:50.776Z,9.95
2023-04-16T21:11:17.206Z,9.95
2023-04-16T21:13:43.882Z,9.89
2023-04-16T21:16:12.250Z,9.92
2023-04-16T21:18:38.773Z,9.95
2023-04-16T21:21:05.397Z,9.86
2023-04-16T21:23:32.035Z,9.93
2023-04-16T21:25:58.499Z,9.83
2023-04-16T21:28:25.002Z,9.90
2023-04-16T21:30:52.433Z,9.86
2023-04-16T21:33:19.143Z,9.84
2023-04-16T21:35:51.453Z,9.79
2023-04-16T21:38:18.085Z,9.84
2023-04-16T21:40:46.265Z,9.87
2023-04-16T21:43:12.677Z,9.81
2023-04-16T21:45:39.758Z,9.76
2023-04-16T21:48:06.566Z,9.69
2023-04-16T21:50:33.324Z,9.74
2023-04-16T21:52:59.762Z,9.71
2023-04-16T21:55:26.224Z,9.77
2023-04-16T21:57:52.674Z,9.73
2023-04-16T22:00:19.224Z,9.79
2023-04-16T22:02:45.973Z,9.76
2023-04-16T22:05:12.752Z,9.79
2023-04-16T22:07:39.346Z,9.73
2023-04-16T22:10:06.755Z,9.67
2023-04-16T22:12:33.328Z,9.72
2023-04-16T22:15:02.931Z,9.65
2023-04-16T22:17:30.197Z,9.53
2023-04-16T22:20:00.286Z,9.58
2023-04-16T22:22:26.741Z,9.56
2023-04-16T22:24:53.388Z,9.50
2023-04-16T22:27:19.968Z,9.50
2023-04-16T22:29:46.396Z,9.48
2023-04-16T22:32:13.101Z,9.52
2023-04-16T22:34:39.546Z,9.55
2023-04-16T22:37:08.116Z,9.53
2023-04-16T22:39:34.726Z,9.51
2023-04-16T22:42:02.428Z,9.58
2023-04-16T22:44:29.078Z,9.57
2023-04-16T22:46:55.640Z,9.52
2023-04-16T22:49:22.119Z,9.55
2023-04-16T22:51:48.731Z,9.47
2023-04-16T22:54:15.189Z,9.47
2023-04-16T22:56:41.775Z,9.42
2023-04-16T22:59:08.295Z,9.41
2023-04-16T23:01:35.074Z,9.43
2023-04-16T23:04:01.696Z,9.40
2023-04-16T23:06:28.455Z,9.37
2023-04-16T23:08:54.890Z,9.36
2023-04-16T23:11:21.927Z,9.40
2023-04-16T23:13:48.358Z,9.37
2023-04-16T23:16:15.048Z,9.37
2023-04-16T23:18:41.491Z,9.30
2023-04-16T23:21:07.885Z,9.24
2023-04-16T23:23:34.343Z,9.24
2023-04-16T23:26:02.612Z,9.24
2023-04-16T23:28:29.367Z,9.16
2023-04-16T23:30:55.902Z,9.06
2023-04-16T23:33:22.612Z,8.91
2023-04-16T23:35:49.024Z,8.81
2023-04-16T23:38:15.681Z,8.92
2023-04-16T23:40:42.142Z,9.02
2023-04-16T23:43:09.446Z,9.00
2023-04-16T23:45:35.956Z,8.92
2023-04-16T23:48:02.647Z,8.96
2023-04-16T23:50:29.122Z,8.91
2023-04-16T23:52:55.696Z,8.89
2023-04-16T23:55:22.250Z,8.85
2023-04-16T23:57:48.776Z,8.83
